Flight Track Log - Related Links

Times and Time Zones

All times are in EDT time to prevent confusion due to time zone crossing. See the RPA3228 flight status page for this flight to view local times or setup timezone preferences in your user account.

Time Position Orientation Groundspeed Altitude Reporting Facility
EDT Latitude Longitude Course Direction KTS MPH feet Rate Location/Type
Mon 10:20:28 AM 38.8833 -77.0667 61° Northeast 179 206 2,200  Level Potomac TRACON
Mon 10:22:00 AM 38.9665 -76.6837 67° East  Level FlightAware Approximate
Mon 10:22:02 AM 38.9636 -77.1533 320° Northwest 225 259 6,500  Level Washington Center
Mon 10:23:00 AM 39.0153 -76.5695 57° Northeast  Level FlightAware Approximate
Mon 10:23:02 AM 39.0125 -77.0956 43° Northeast 193 222 9,900  Level Washington Center
Mon 10:24:00 AM 39.0593 -76.4517 63° Northeast  Level FlightAware Approximate
Mon 10:24:00 AM 39.0306 -76.9758 79° East 198 228 11,700  Level Washington Center
Mon 10:25:00 AM 39.1080 -76.3369 61° Northeast  Level FlightAware Approximate
Mon 10:25:01 AM 39.0528 -76.8397 78° East 304 350 13,300  Level Washington Center
Mon 10:26:02 AM 39.0750 -76.6931 79° East 392 451 15,500 2,067 Climbing Washington Center
Mon 10:27:00 AM 39.0992 -76.5411 78° East 413 475 17,400 1,765 Climbing Washington Center
Mon 10:28:01 AM 39.1256 -76.3808 78° East 441 507 19,000 1,623 Climbing Washington Center
Mon 10:29:02 AM 39.1514 -76.2019 79° East 462 532 20,700 1,587 Climbing Washington Center
Mon 10:30:02 AM 39.1667 -76.0467 83° East 482 555 22,200 1,400 Climbing Washington Center
Mon 10:31:02 AM 39.2069 -75.8594 74° East 492 566 23,500 1,412 Climbing Washington Center
Mon 10:32:01 AM 39.3156 -75.7258 44° Northeast 502 578 25,000 1,650 Climbing Washington Center
Mon 10:33:02 AM 39.4178 -75.5917 45° Northeast 513 590 26,800 1,563 Climbing Washington Center
Mon 10:34:00 AM 39.5175 -75.4625 45° Northeast 513 590 28,100 1,322 Climbing Washington Center
Mon 10:35:00 AM 39.6217 -75.3247 46° Northeast 513 590 29,400 1,140 Climbing Washington Center
Mon 10:36:01 AM 39.7192 -75.1842 48° Northeast 513 590 30,400 787 Climbing Washington Center
Mon 10:37:02 AM 39.8228 -75.0431 46° Northeast 526 605 31,000 208 Climbing Washington Center
Mon 10:38:54 AM 40.0211 -74.7608 47° Northeast 552 635 31,000  Level New York Center
Mon 10:39:54 AM 40.1242 -74.6092 48° Northeast 558 642 31,000  Level New York Center
Mon 10:40:54 AM 40.2372 -74.4633 45° Northeast 558 642 31,000  Level New York Center
Mon 10:41:55 AM 40.3492 -74.3439 39° Northeast 565 650 31,000  Level New York Center
Mon 10:42:55 AM 40.4783 -74.2006 40° Northeast 565 650 31,000  Level New York Center
Mon 10:43:54 AM 40.5706 -74.0358 54° Northeast 553 636 31,000  Level New York Center
Mon 10:44:54 AM 40.6628 -73.8706 54° Northeast 558 642 31,000  Level New York Center
Mon 10:46:44 AM 40.9294 -73.7725 16° North 531 611 31,000  Level Boston Center
Mon 10:47:44 AM 41.0756 -73.7506 North 526 605 31,000  Level Boston Center
Mon 10:48:44 AM 41.2197 -73.7261 North 526 605 31,000  Level Boston Center
Mon 10:49:44 AM 41.3617 -73.6983 North 520 598 31,000  Level Boston Center
Mon 10:50:44 AM 41.5078 -73.6764 North 520 598 31,000  Level Boston Center
Mon 10:51:44 AM 41.6331 -73.6567 North 520 598 31,000  Level Boston Center
Mon 10:52:44 AM 41.7772 -73.6317 North 520 598 31,000  Level Boston Center
Mon 10:53:44 AM 41.9172 -73.6092 North 520 598 31,000  Level Boston Center
Mon 10:54:44 AM 42.0822 -73.5758 North 520 598 31,000  Level Boston Center
Mon 10:55:44 AM 42.2200 -73.5531 North 530 610 31,000  Level Boston Center
Mon 10:56:44 AM 42.3472 -73.5356 North 519 597 31,000  Level Boston Center
Mon 10:57:44 AM 42.4911 -73.5100 North 514 592 31,000  Level Boston Center
Mon 10:58:44 AM 42.6331 -73.4842 North 514 592 31,000  Level Boston Center
Mon 10:59:44 AM 42.7794 -73.4583 North 519 597 31,000 -200 Level Boston Center
Mon 11:00:44 AM 42.9192 -73.4325 North 514 592 30,600 -1,650 Descending Boston Center
Mon 11:01:44 AM 43.0736 -73.4036 North 509 586 27,700 -2,550 Descending Boston Center
Mon 11:02:44 AM 43.1947 -73.3828 North 501 577 25,500 -1,850 Descending Boston Center
Mon 11:03:44 AM 43.3303 -73.3619 North 496 571 24,000 -1,300 Descending Boston Center
Mon 11:04:44 AM 43.4514 -73.3353 North 473 544 22,900 -1,700 Descending Boston Center
Mon 11:05:44 AM 43.5703 -73.3169 North 441 507 20,600 -2,350 Descending Boston Center
Mon 11:06:44 AM 43.6872 -73.2956 North 427 491 18,200 -2,350 Descending Boston Center
Mon 11:07:44 AM 43.8000 -73.2772 North 411 473 15,900 -2,091 Descending Boston Center
Mon 11:08:56 AM 43.9042 -73.2583 North 394 453 13,600 -2,136 Descending Boston Center
Mon 11:09:56 AM 44.0272 -73.2342 North 351 404 11,200 -2,150 Descending Boston Center
Mon 11:10:56 AM 44.1108 -73.2178 North 311 358 9,300 -2,150 Descending Boston Center
Mon 11:11:56 AM 44.1758 -73.1492 37° Northeast 281 323 6,900 -2,300 Descending Boston Center
Mon 11:12:56 AM 44.2367 -73.0864 36° Northeast 274 315 4,700 -1,550 Descending Boston Center
Mon 11:13:56 AM 44.2975 -73.0231 37° Northeast 274 315 3,800 -900 Descending Boston Center

Login

Don't have an account? Register now (free) for customized features, flight alerts, and more!